Time;durP1;ratioP1;P1;durP2;ratioP2;P2;SDS_P1;SDS_P2;PMS_P1;PMS_P2;Temp;Humidity;BMP_temperature;BMP_pressure;BME280_temperature;BME280_humidity;BME280_pressure;Samples;Min_cycle;Max_cycle;Signal;HPM_P1;HPM_P2
2023/12/02 00:01:42;;;;;;;5.50;2.80;;;;;;;12.70;56.24;94181.41;5003605;28;20222;-77
2023/12/02 00:04:07;;;;;;;6.23;2.50;;;;;;;12.65;56.81;94167.13;5000419;28;20273;-76
2023/12/02 00:06:33;;;;;;;3.70;2.43;;;;;;;12.61;57.14;94166.66;5004391;28;20230;-76
2023/12/02 00:08:58;;;;;;;3.43;2.33;;;;;;;12.71;56.89;94161.91;4996177;28;20227;-75
2023/12/02 00:11:23;;;;;;;3.43;2.30;;;;;;;12.68;56.94;94154.38;5012528;28;20195;-75
2023/12/02 00:13:49;;;;;;;3.97;2.60;;;;;;;12.64;57.04;94154.94;4996849;28;20466;-75
2023/12/02 00:16:14;;;;;;;3.57;2.63;;;;;;;12.61;57.14;94168.50;5002096;28;20231;-76
2023/12/02 00:18:40;;;;;;;6.83;2.80;;;;;;;12.65;57.22;94175.84;5001169;28;20318;-75
2023/12/02 00:21:06;;;;;;;4.80;2.57;;;;;;;12.66;57.20;94171.41;5001802;28;20223;-76
2023/12/02 00:23:31;;;;;;;5.77;3.17;;;;;;;12.65;57.56;94172.41;5006554;28;20253;-75
2023/12/02 00:25:58;;;;;;;3.80;3.10;;;;;;;12.63;57.67;94159.41;5005100;28;20197;-75
2023/12/02 00:28:24;;;;;;;6.13;3.35;;;;;;;12.61;57.95;94135.03;5002377;28;20285;-76
2023/12/02 00:30:49;;;;;;;7.27;3.87;;;;;;;12.51;58.12;94161.69;5002152;28;20218;-75
2023/12/02 00:33:15;;;;;;;5.73;3.70;;;;;;;12.19;59.26;94173.47;5006158;28;20302;-75
2023/12/02 00:35:40;;;;;;;9.37;4.33;;;;;;;12.13;59.43;94166.25;4999236;28;20224;-75
2023/12/02 00:38:06;;;;;;;7.97;3.90;;;;;;;12.25;59.18;94149.00;5001015;28;20179;-76
2023/12/02 00:40:31;;;;;;;5.68;3.70;;;;;;;12.33;58.99;94163.91;5001102;28;20306;-76
2023/12/02 00:42:56;;;;;;;6.28;3.53;;;;;;;12.29;59.27;94162.63;5001268;28;20257;-76
2023/12/02 00:45:22;;;;;;;6.20;4.10;;;;;;;12.38;58.88;94160.72;5000963;28;20274;-75
2023/12/02 00:47:47;;;;;;;9.03;4.63;;;;;;;12.40;59.11;94166.59;4996861;28;20241;-75
2023/12/02 00:50:13;;;;;;;6.45;3.70;;;;;;;12.37;59.25;94167.78;4998743;28;20597;-76
2023/12/02 00:52:38;;;;;;;6.70;3.60;;;;;;;12.41;59.45;94131.34;5002908;28;20265;-75
2023/12/02 00:55:04;;;;;;;12.10;4.40;;;;;;;12.40;59.44;94154.25;4999612;28;20227;-75
2023/12/02 00:57:29;;;;;;;7.73;3.83;;;;;;;11.99;60.58;94196.88;4993549;28;20259;-75
2023/12/02 00:59:55;;;;;;;7.33;3.70;;;;;;;12.10;60.58;94120.00;4986661;28;20315;-75
2023/12/02 01:02:20;;;;;;;9.43;4.17;;;;;;;12.18;60.16;94147.28;4983871;28;20192;-74
2023/12/02 01:04:46;;;;;;;5.50;3.13;;;;;;;11.53;61.55;94185.59;5007036;28;20207;-75
2023/12/02 01:07:11;;;;;;;7.37;3.13;;;;;;;11.67;61.40;94150.56;5005250;28;20322;-75
2023/12/02 01:09:37;;;;;;;7.03;2.67;;;;;;;11.81;57.84;94147.13;5001018;28;20227;-76
2023/12/02 01:12:02;;;;;;;7.77;3.10;;;;;;;12.06;56.97;94197.00;5003833;28;20227;-75
2023/12/02 01:14:28;;;;;;;4.13;2.40;;;;;;;12.28;57.35;94174.97;5000165;28;20217;-75
2023/12/02 01:16:53;;;;;;;3.73;2.60;;;;;;;12.38;57.47;94118.53;4987046;28;20269;-76
2023/12/02 01:19:20;;;;;;;4.87;2.43;;;;;;;12.46;57.33;94121.06;5004887;28;20226;-76
2023/12/02 01:21:45;;;;;;;4.13;2.67;;;;;;;12.50;57.27;94146.06;5007473;28;20223;-76
2023/12/02 01:24:11;;;;;;;4.93;2.60;;;;;;;12.23;58.13;94176.53;4998738;28;20245;-75
2023/12/02 01:26:36;;;;;;;7.27;2.90;;;;;;;12.29;58.38;94137.06;5001817;28;20207;-79
2023/12/02 01:29:02;;;;;;;6.27;2.47;;;;;;;12.36;58.35;94145.06;4998235;28;20191;-79
2023/12/02 01:31:28;;;;;;;8.17;2.40;;;;;;;12.41;57.99;94157.72;4996677;28;20219;-79
2023/12/02 01:33:53;;;;;;;5.73;2.50;;;;;;;12.43;57.99;94121.41;5005694;28;20223;-79
2023/12/02 01:36:19;;;;;;;6.10;2.23;;;;;;;12.37;58.09;94128.25;5005166;28;20305;-79
2023/12/02 01:38:44;;;;;;;5.67;2.40;;;;;;;12.52;57.77;94109.78;4997540;28;20223;-79
2023/12/02 01:41:09;;;;;;;8.57;2.60;;;;;;;12.41;58.26;94118.97;4998702;28;20325;-79
2023/12/02 01:43:37;;;;;;;6.87;2.20;;;;;;;12.19;58.23;94148.91;4999303;28;20235;-78
2023/12/02 01:46:03;;;;;;;5.13;2.30;;;;;;;12.06;58.57;94183.81;5007914;28;20243;-78
2023/12/02 01:48:32;;;;;;;7.27;2.40;;;;;;;12.15;58.12;94137.91;5009786;28;20227;-80
2023/12/02 01:50:58;;;;;;;8.43;2.43;;;;;;;12.28;57.80;94085.38;5004239;28;20278;-80
2023/12/02 01:53:23;;;;;;;5.60;2.20;;;;;;;12.34;57.59;94124.16;5002911;28;20186;-80
2023/12/02 01:55:49;;;;;;;5.87;2.40;;;;;;;12.41;57.29;94142.72;5003414;28;20195;-79
2023/12/02 01:58:14;;;;;;;7.57;3.03;;;;;;;12.50;58.22;94117.03;5006065;28;20222;-80
2023/12/02 02:00:40;;;;;;;4.83;2.60;;;;;;;12.39;58.62;94134.16;5008533;28;20294;-81
2023/12/02 02:03:05;;;;;;;4.23;2.10;;;;;;;12.27;59.15;94149.63;5005966;28;20314;-80
2023/12/02 02:05:31;;;;;;;3.33;2.20;;;;;;;12.06;59.83;94139.03;5006444;28;20187;-80
2023/12/02 02:07:56;;;;;;;5.00;2.30;;;;;;;11.99;59.86;94104.66;5008052;28;20218;-80
2023/12/02 02:10:22;;;;;;;4.87;2.57;;;;;;;12.10;59.50;94112.09;5008104;28;20231;-81
2023/12/02 02:12:47;;;;;;;5.13;2.37;;;;;;;12.17;59.40;94130.66;5003807;28;20231;-81
2023/12/02 02:15:13;;;;;;;4.40;1.93;;;;;;;12.16;59.31;94084.19;5006513;28;20258;-81
2023/12/02 02:17:39;;;;;;;4.97;2.38;;;;;;;12.25;59.39;94071.75;5005953;28;20221;-80
2023/12/02 02:20:05;;;;;;;4.95;2.95;;;;;;;12.12;60.03;94122.47;5010238;28;20245;-81
2023/12/02 02:22:31;;;;;;;5.07;2.30;;;;;;;12.02;60.46;94146.44;5005922;28;20276;-80
2023/12/02 02:24:56;;;;;;;8.53;2.90;;;;;;;12.06;60.61;94076.59;4999988;28;20231;-76
2023/12/02 02:27:22;;;;;;;4.67;2.60;;;;;;;12.14;60.17;94046.69;5007251;28;20231;-75
2023/12/02 02:29:47;;;;;;;6.70;2.60;;;;;;;12.13;60.21;94103.00;5006768;28;20223;-75
2023/12/02 02:32:13;;;;;;;6.00;2.27;;;;;;;12.18;60.11;94099.84;5008934;28;20197;-75
2023/12/02 02:34:41;;;;;;;3.23;1.97;;;;;;;12.18;60.28;94092.75;5002830;28;20227;-75
2023/12/02 02:37:07;;;;;;;6.13;2.73;;;;;;;12.17;60.17;94122.75;5009836;28;20250;-75
2023/12/02 02:39:32;;;;;;;4.53;2.55;;;;;;;12.17;59.91;94067.41;5013857;28;20287;-76
2023/12/02 02:41:57;;;;;;;8.43;2.50;;;;;;;12.22;59.86;94080.03;5007317;28;20242;-75
2023/12/02 02:44:23;;;;;;;8.52;2.72;;;;;;;12.16;60.10;94083.38;5009663;28;20183;-76
2023/12/02 02:46:48;;;;;;;6.30;2.77;;;;;;;12.15;60.06;94119.47;4998557;28;20230;-76
2023/12/02 02:49:14;;;;;;;6.55;2.33;;;;;;;12.07;59.80;94116.94;5004897;28;20293;-75
2023/12/02 02:51:39;;;;;;;4.53;1.83;;;;;;;12.05;58.78;94009.06;4999018;28;20294;-75
2023/12/02 02:54:05;;;;;;;7.83;2.30;;;;;;;12.16;58.83;94064.94;5002120;28;20239;-76
2023/12/02 02:56:30;;;;;;;8.30;2.30;;;;;;;11.97;59.35;94082.13;5007691;28;20265;-75
2023/12/02 02:58:56;;;;;;;3.90;2.00;;;;;;;12.08;59.41;94089.56;4999414;28;20187;-75
2023/12/02 03:01:22;;;;;;;5.43;1.90;;;;;;;12.23;58.85;94093.00;5003199;28;20219;-75
2023/12/02 03:03:48;;;;;;;5.67;2.50;;;;;;;12.25;58.26;94106.81;4999810;28;20698;-75
2023/12/02 03:06:13;;;;;;;5.70;1.80;;;;;;;12.19;58.50;94054.03;5003774;28;20238;-75
2023/12/02 03:08:39;;;;;;;6.03;1.90;;;;;;;12.22;58.19;94095.84;5006853;28;20222;-75
2023/12/02 03:11:05;;;;;;;6.07;1.97;;;;;;;12.02;58.35;94095.56;5003540;28;20188;-76
2023/12/02 03:13:30;;;;;;;4.13;2.20;;;;;;;12.19;58.13;94033.78;5002219;28;20242;-75
2023/12/02 03:15:56;;;;;;;3.13;1.70;;;;;;;12.23;58.15;94042.94;5000140;28;20223;-75
2023/12/02 03:18:21;;;;;;;7.40;2.60;;;;;;;12.01;58.54;94099.22;5004310;28;20223;-75
2023/12/02 03:20:46;;;;;;;4.25;2.25;;;;;;;11.93;58.37;94055.34;5001005;28;20230;-75
2023/12/02 03:23:12;;;;;;;4.67;2.13;;;;;;;12.07;57.84;94095.84;5000634;28;20321;-75
2023/12/02 03:25:37;;;;;;;7.10;2.60;;;;;;;12.22;57.74;94109.84;5004032;28;20319;-75
2023/12/02 03:28:03;;;;;;;3.53;2.03;;;;;;;12.33;57.30;94088.25;5009390;28;20245;-75
2023/12/02 03:30:28;;;;;;;6.20;2.17;;;;;;;12.26;57.80;94092.63;4999309;28;20222;-75
2023/12/02 03:32:54;;;;;;;3.50;1.87;;;;;;;12.24;57.89;94083.28;5000577;28;20227;-75
2023/12/02 03:35:19;;;;;;;6.07;2.23;;;;;;;12.29;57.61;94067.72;5001139;28;20183;-75
2023/12/02 03:37:45;;;;;;;3.83;2.10;;;;;;;12.31;57.71;94098.16;5002128;28;20220;-75
2023/12/02 03:40:11;;;;;;;6.37;1.80;;;;;;;12.00;57.94;94081.75;5017851;28;20687;-75
2023/12/02 03:42:36;;;;;;;5.20;1.80;;;;;;;11.98;58.31;94039.00;5009165;28;20253;-75
2023/12/02 03:45:02;;;;;;;8.40;2.13;;;;;;;12.09;58.18;94075.41;4999688;28;20278;-75
2023/12/02 03:47:28;;;;;;;5.03;2.37;;;;;;;12.12;58.24;94118.00;4984642;28;20204;-75
2023/12/02 03:49:53;;;;;;;4.40;2.20;;;;;;;12.18;57.78;94120.91;5001003;28;20184;-75
2023/12/02 03:52:19;;;;;;;3.97;1.83;;;;;;;12.17;57.72;94059.50;5008089;28;20349;-75
2023/12/02 03:54:44;;;;;;;5.13;1.80;;;;;;;12.27;57.18;94061.81;5000010;28;20231;-75
2023/12/02 03:57:09;;;;;;;2.83;1.80;;;;;;;12.11;57.68;94091.88;5001569;28;20230;-75
2023/12/02 03:59:36;;;;;;;4.23;2.13;;;;;;;12.10;57.97;94106.81;5001231;28;20191;-75
2023/12/02 04:02:02;;;;;;;3.97;2.07;;;;;;;11.99;58.00;94096.75;4996256;28;20191;-75
2023/12/02 04:04:27;;;;;;;4.43;2.00;;;;;;;12.13;57.91;94103.00;5004752;28;20243;-75
2023/12/02 04:06:53;;;;;;;3.47;2.00;;;;;;;12.15;57.87;94106.28;5002095;28;20234;-75
2023/12/02 04:09:18;;;;;;;4.70;1.77;;;;;;;12.15;58.24;94064.13;5008059;28;20233;-75
2023/12/02 04:11:46;;;;;;;4.63;2.13;;;;;;;12.08;58.64;94056.16;5003796;28;20242;-75
2023/12/02 04:14:12;;;;;;;5.80;1.87;;;;;;;12.16;57.90;94068.38;5003055;28;20211;-75
2023/12/02 04:16:41;;;;;;;5.35;2.05;;;;;;;12.13;57.24;94066.13;4997727;28;20219;-75
2023/12/02 04:19:08;;;;;;;3.20;1.98;;;;;;;12.17;57.83;94079.75;5004892;28;20314;-75
2023/12/02 04:21:40;;;;;;;4.22;1.88;;;;;;;12.22;57.40;94043.94;5004152;28;20237;-75
2023/12/02 04:24:06;;;;;;;4.70;2.00;;;;;;;12.24;57.19;94046.38;5004037;28;20253;-75
2023/12/02 04:26:31;;;;;;;6.67;2.00;;;;;;;12.36;56.94;94016.72;5002533;28;20194;-75
2023/12/02 04:28:57;;;;;;;5.17;2.03;;;;;;;11.96;57.73;94047.06;5001661;28;20274;-75
2023/12/02 04:31:22;;;;;;;9.33;2.10;;;;;;;12.02;57.61;94027.88;5005692;28;20306;-75
2023/12/02 04:33:48;;;;;;;4.13;2.27;;;;;;;12.13;57.32;94024.78;5005633;28;20230;-75
2023/12/02 04:36:14;;;;;;;7.55;2.28;;;;;;;12.24;57.45;94047.22;5005707;28;20231;-75
2023/12/02 04:38:40;;;;;;;5.47;2.07;;;;;;;12.23;57.08;94037.66;5003887;28;20187;-75
2023/12/02 04:41:06;;;;;;;5.87;2.77;;;;;;;12.08;57.05;94039.50;5005924;28;20672;-76
2023/12/02 04:43:31;;;;;;;5.57;2.27;;;;;;;12.14;56.82;93997.44;5000189;28;20264;-75
2023/12/02 04:45:56;;;;;;;6.27;2.07;;;;;;;12.19;57.13;94010.06;4983214;28;20234;-76
2023/12/02 04:48:22;;;;;;;3.38;2.03;;;;;;;12.14;57.37;93984.25;4999215;28;20238;-74
2023/12/02 04:50:48;;;;;;;5.60;3.33;;;;;;;12.13;57.17;93980.00;5000158;28;20250;-75
2023/12/02 04:53:13;;;;;;;5.07;2.10;;;;;;;12.09;57.53;93954.19;5006883;28;20285;-75
2023/12/02 04:55:39;;;;;;;6.30;2.40;;;;;;;12.14;57.25;93996.63;5002926;28;20226;-75
2023/12/02 04:58:05;;;;;;;6.07;2.37;;;;;;;11.68;58.10;94031.06;4998744;28;20254;-75
2023/12/02 05:00:31;;;;;;;9.55;2.20;;;;;;;11.79;57.59;94017.47;4998050;28;20242;-75
2023/12/02 05:02:56;;;;;;;5.40;2.20;;;;;;;11.97;57.05;93985.47;4992936;28;20259;-75
2023/12/02 05:05:21;;;;;;;7.83;2.40;;;;;;;11.98;56.85;94041.63;4980770;28;20215;-75
2023/12/02 05:07:47;;;;;;;3.70;2.00;;;;;;;12.07;56.51;94016.81;4988244;28;20298;-75
2023/12/02 05:10:12;;;;;;;3.70;2.03;;;;;;;12.14;56.50;94020.34;4980637;28;20215;-75
2023/12/02 05:12:38;;;;;;;5.70;1.83;;;;;;;12.20;56.67;94034.59;4982438;28;20259;-76
2023/12/02 05:15:04;;;;;;;3.60;1.90;;;;;;;12.17;56.79;94034.97;4985632;28;20231;-76
2023/12/02 05:17:29;;;;;;;6.10;2.10;;;;;;;12.18;56.56;94013.69;4982950;28;20188;-76
2023/12/02 05:19:56;;;;;;;4.23;2.43;;;;;;;12.24;56.62;94026.13;4990242;28;20194;-76
2023/12/02 05:22:22;;;;;;;7.20;2.30;;;;;;;12.22;57.13;93985.16;4999588;28;20586;-76
2023/12/02 05:24:47;;;;;;;6.10;2.30;;;;;;;12.29;57.10;94002.63;5008042;28;20227;-75
2023/12/02 05:27:13;;;;;;;6.07;2.70;;;;;;;12.25;57.07;93974.22;5006292;28;20231;-77
2023/12/02 05:29:38;;;;;;;4.20;1.97;;;;;;;12.32;57.05;94015.47;5010333;28;20194;-76
2023/12/02 05:32:04;;;;;;;3.80;1.87;;;;;;;12.32;57.13;93991.75;5004341;28;20198;-76
2023/12/02 05:34:30;;;;;;;4.33;1.97;;;;;;;12.32;56.88;93991.75;4974852;28;20231;-76
2023/12/02 05:36:55;;;;;;;5.00;2.10;;;;;;;12.39;56.56;94007.63;5006980;28;20227;-76
2023/12/02 05:39:21;;;;;;;6.73;2.23;;;;;;;12.27;56.84;94007.31;5010333;28;20222;-78
2023/12/02 05:41:46;;;;;;;4.00;2.30;;;;;;;12.28;57.04;94034.47;4991251;28;20238;-76
2023/12/02 05:44:11;;;;;;;4.67;2.20;;;;;;;12.07;55.95;94029.97;5005759;28;20191;-77
2023/12/02 05:46:37;;;;;;;3.73;1.70;;;;;;;12.20;56.01;94003.78;5002044;28;20236;-76
2023/12/02 05:49:03;;;;;;;3.07;2.20;;;;;;;12.29;55.75;93996.56;5005154;28;20301;-76
2023/12/02 05:51:28;;;;;;;3.40;2.00;;;;;;;12.31;55.45;94000.63;5003624;28;20223;-75
2023/12/02 05:53:54;;;;;;;4.87;2.00;;;;;;;12.29;55.96;93973.66;5005368;28;20218;-77
2023/12/02 05:56:21;;;;;;;7.80;2.57;;;;;;;12.32;55.78;93981.19;5001465;28;20194;-76
2023/12/02 05:58:46;;;;;;;4.33;2.17;;;;;;;12.36;55.92;93958.72;5006200;28;20222;-77
2023/12/02 06:01:18;;;;;;;4.63;2.03;;;;;;;12.29;56.03;93959.66;5017949;28;20219;-77
2023/12/02 06:03:44;;;;;;;4.00;2.57;;;;;;;11.98;57.11;94012.66;5001627;28;20215;-76
2023/12/02 06:06:10;;;;;;;6.57;2.37;;;;;;;12.15;56.85;93979.78;5005003;28;20306;-78
2023/12/02 06:08:36;;;;;;;5.23;2.30;;;;;;;12.23;57.09;93986.78;5000981;28;20206;-77
2023/12/02 06:11:02;;;;;;;5.97;2.10;;;;;;;12.27;56.99;94015.22;5004792;28;20195;-77
2023/12/02 06:13:27;;;;;;;4.50;2.30;;;;;;;12.36;57.03;93998.25;5006737;28;20253;-78
2023/12/02 06:15:52;;;;;;;4.00;1.90;;;;;;;12.37;57.06;94025.44;4998824;28;20250;-77
2023/12/02 06:18:18;;;;;;;6.20;2.17;;;;;;;12.23;57.04;94036.84;4990314;28;20236;-76
2023/12/02 06:20:43;;;;;;;6.50;2.30;;;;;;;12.35;56.97;94027.47;5007503;28;20621;-76
2023/12/02 06:23:09;;;;;;;5.20;2.40;;;;;;;12.43;56.86;94034.41;5005289;28;20190;-77
2023/12/02 06:25:34;;;;;;;6.18;2.33;;;;;;;12.44;56.83;94025.53;5001250;28;20241;-77
2023/12/02 06:28:00;;;;;;;5.25;2.30;;;;;;;12.50;56.68;94030.03;5003178;28;20274;-77
2023/12/02 06:30:25;;;;;;;3.53;2.30;;;;;;;12.47;56.70;94020.69;5003493;28;20231;-77
2023/12/02 06:32:51;;;;;;;4.45;2.35;;;;;;;12.54;56.57;94028.66;5010332;28;20230;-79
2023/12/02 06:35:16;;;;;;;4.83;2.30;;;;;;;12.53;56.88;94042.84;5005000;28;20218;-75
2023/12/02 06:37:41;;;;;;;4.97;2.40;;;;;;;12.52;56.37;94028.84;5002518;28;20245;-78
2023/12/02 06:40:07;;;;;;;3.63;2.10;;;;;;;12.44;55.90;94038.69;5009404;28;20267;-77
2023/12/02 06:42:34;;;;;;;5.15;2.65;;;;;;;12.50;55.72;94051.13;5003674;28;20298;-77
2023/12/02 06:44:59;;;;;;;4.50;2.40;;;;;;;12.53;55.15;94008.56;5005486;28;20244;-76
2023/12/02 06:47:25;;;;;;;7.03;2.50;;;;;;;12.51;55.26;94036.94;4999086;28;20258;-78
2023/12/02 06:49:51;;;;;;;8.93;3.17;;;;;;;12.55;55.21;94038.19;5008364;28;20187;-76
2023/12/02 06:52:16;;;;;;;4.43;2.22;;;;;;;12.54;54.57;94004.94;5010041;28;20218;-77
2023/12/02 06:54:41;;;;;;;6.07;2.42;;;;;;;12.49;54.61;94025.78;5001788;28;20258;-77
2023/12/02 06:57:07;;;;;;;3.60;2.42;;;;;;;12.55;54.65;94067.22;5001246;28;20211;-76
2023/12/02 06:59:33;;;;;;;4.20;2.15;;;;;;;12.57;54.50;94058.09;5002767;28;20203;-77
2023/12/02 07:01:59;;;;;;;6.77;2.00;;;;;;;12.62;54.22;94047.00;5009218;28;20183;-77
2023/12/02 07:04:24;;;;;;;7.40;2.50;;;;;;;12.61;54.61;94055.09;5009599;28;20254;-77
2023/12/02 07:06:50;;;;;;;6.72;2.78;;;;;;;12.50;54.85;94046.66;5001497;28;20295;-77
2023/12/02 07:09:15;;;;;;;5.68;2.30;;;;;;;12.58;54.69;94011.44;5002557;28;20231;-77
2023/12/02 07:11:41;;;;;;;6.18;2.42;;;;;;;12.56;54.95;94040.66;4985415;28;20242;-76
2023/12/02 07:14:07;;;;;;;5.40;2.50;;;;;;;12.39;55.37;94035.81;5001961;28;20200;-77
2023/12/02 07:16:32;;;;;;;4.15;2.58;;;;;;;12.48;55.31;94053.97;5005899;28;20268;-77
2023/12/02 07:18:58;;;;;;;4.82;2.42;;;;;;;12.57;55.11;94062.56;4997126;28;20216;-78
2023/12/02 07:21:23;;;;;;;4.73;2.43;;;;;;;12.60;54.74;94054.28;4998480;28;20223;-76
2023/12/02 07:23:49;;;;;;;4.93;2.33;;;;;;;12.50;55.08;94020.28;5001029;28;20227;-77
2023/12/02 07:26:14;;;;;;;7.20;2.50;;;;;;;12.61;54.92;94053.25;5001973;28;20208;-76
2023/12/02 07:28:41;;;;;;;7.03;3.03;;;;;;;12.60;54.61;94069.28;5001020;28;20219;-77
2023/12/02 07:31:14;;;;;;;5.07;2.75;;;;;;;12.66;54.25;94053.53;5005545;28;20226;-77
2023/12/02 07:33:40;;;;;;;7.28;2.50;;;;;;;12.60;54.84;94051.63;5003680;28;20235;-76
2023/12/02 07:36:06;;;;;;;6.07;2.37;;;;;;;12.66;54.53;94044.78;5002948;28;20973;-77
2023/12/02 07:38:33;;;;;;;5.55;2.30;;;;;;;12.66;54.03;94042.97;5004769;28;20184;-78
2023/12/02 07:40:58;;;;;;;6.65;2.75;;;;;;;12.66;54.30;94056.16;4991718;28;20190;-75
2023/12/02 07:43:24;;;;;;;6.95;2.95;;;;;;;12.67;54.16;94076.28;5001677;28;20219;-76
2023/12/02 07:45:50;;;;;;;5.93;2.85;;;;;;;12.72;53.89;94050.16;5007458;28;20262;-77
2023/12/02 07:48:16;;;;;;;6.17;2.40;;;;;;;12.72;54.20;94034.31;5000051;28;20236;-77
2023/12/02 07:50:42;;;;;;;5.95;3.30;;;;;;;12.76;54.52;94030.28;5001943;28;20226;-78
2023/12/02 07:53:07;;;;;;;4.28;2.40;;;;;;;12.67;53.96;94031.44;5018101;28;20186;-77
2023/12/02 07:55:33;;;;;;;6.70;2.63;;;;;;;12.70;54.09;94040.78;4999876;28;20206;-77
2023/12/02 07:57:58;;;;;;;5.88;2.78;;;;;;;12.77;54.24;94036.38;5000463;28;20258;-78
2023/12/02 08:00:24;;;;;;;6.07;3.40;;;;;;;12.84;53.77;93994.25;5009329;28;20227;-78
2023/12/02 08:02:49;;;;;;;8.35;3.47;;;;;;;12.76;53.97;93998.63;5005374;28;20238;-78
2023/12/02 08:05:15;;;;;;;8.63;3.10;;;;;;;12.78;54.22;94028.28;5004916;28;20187;-77
2023/12/02 08:07:41;;;;;;;11.57;4.50;;;;;;;12.80;53.97;94023.66;4998343;28;20238;-77
2023/12/02 08:10:06;;;;;;;8.73;4.20;;;;;;;12.78;53.63;94022.19;5000631;28;20242;-77
2023/12/02 08:12:32;;;;;;;6.15;2.85;;;;;;;12.82;53.08;94006.78;5002118;28;20219;-77
2023/12/02 08:14:58;;;;;;;5.17;3.00;;;;;;;12.85;53.13;94020.41;4999056;28;20325;-77
2023/12/02 08:17:23;;;;;;;6.28;3.13;;;;;;;12.84;53.06;94017.97;5006617;28;20183;-77
2023/12/02 08:19:49;;;;;;;6.78;3.25;;;;;;;12.78;53.44;94022.19;5006540;28;20190;-76
2023/12/02 08:22:14;;;;;;;6.47;3.80;;;;;;;12.82;53.73;94046.38;5002590;28;20223;-76
2023/12/02 08:24:42;;;;;;;8.02;3.67;;;;;;;12.80;53.46;94028.91;5003723;28;20261;-77
2023/12/02 08:27:11;;;;;;;8.90;4.60;;;;;;;12.83;53.55;93993.44;5003858;28;20275;-77
2023/12/02 08:29:36;;;;;;;8.68;4.80;;;;;;;12.84;53.20;93987.13;4998838;28;20187;-77
2023/12/02 08:32:03;;;;;;;9.85;5.20;;;;;;;12.84;52.71;93973.13;4994749;28;20270;-76
2023/12/02 08:34:29;;;;;;;7.05;4.82;;;;;;;12.86;52.98;93990.41;4999883;28;20223;-76
2023/12/02 08:36:55;;;;;;;8.10;4.78;;;;;;;12.87;53.12;94015.78;5002843;28;20226;-76
2023/12/02 08:39:20;;;;;;;11.07;5.03;;;;;;;12.80;53.33;93994.63;5002672;28;20214;-78
2023/12/02 08:41:46;;;;;;;9.50;5.13;;;;;;;12.81;53.81;94000.72;5002816;28;20222;-78
2023/12/02 08:44:12;;;;;;;7.35;4.38;;;;;;;12.84;53.47;94002.16;5000463;28;20191;-78
2023/12/02 08:46:37;;;;;;;8.48;4.80;;;;;;;12.86;53.45;94010.69;5003495;28;20254;-77
2023/12/02 08:49:03;;;;;;;11.73;5.80;;;;;;;12.92;53.71;93992.28;4997658;28;20263;-78
2023/12/02 08:51:28;;;;;;;6.47;5.35;;;;;;;12.91;53.36;93979.25;5006787;28;20230;-76
2023/12/02 08:54:03;;;;;;;8.32;5.53;;;;;;;12.89;53.84;94013.75;4997796;28;20301;-78
2023/12/02 08:56:28;;;;;;;8.73;5.18;;;;;;;12.90;53.63;94014.56;5003404;28;20194;-77
2023/12/02 08:58:54;;;;;;;10.85;5.68;;;;;;;12.90;53.23;93994.28;5002161;28;20189;-77
2023/12/02 09:01:23;;;;;;;13.85;6.05;;;;;;;12.92;53.31;94002.81;5006185;28;20270;-78
2023/12/02 09:03:49;;;;;;;8.07;4.93;;;;;;;12.94;53.58;94000.81;4999786;28;20286;-77
2023/12/02 09:06:14;;;;;;;6.95;4.72;;;;;;;12.93;53.43;94012.34;5003673;28;20329;-78
2023/12/02 09:08:40;;;;;;;13.65;6.32;;;;;;;12.97;53.33;94005.72;4999383;28;20230;-77
2023/12/02 09:11:05;;;;;;;8.23;5.93;;;;;;;13.06;53.22;93982.63;5000153;28;20285;-76
2023/12/02 09:13:40;;;;;;;12.63;6.60;;;;;;;13.10;53.15;93978.59;5002165;28;20694;-77
2023/12/02 09:16:29;;;;;;;11.65;6.40;;;;;;;13.18;54.01;93996.94;4997644;28;20226;-77
2023/12/02 09:18:56;;;;;;;13.43;6.13;;;;;;;13.26;54.18;94006.56;4989244;28;20227;-76
2023/12/02 09:21:21;;;;;;;16.42;7.80;;;;;;;13.32;52.94;94007.63;4990916;28;20280;-76
2023/12/02 09:23:48;;;;;;;27.92;12.35;;;;;;;13.42;52.44;94011.53;4985852;28;20223;-76
2023/12/02 09:26:27;;;;;;;17.10;7.65;;;;;;;13.43;52.38;94005.25;4983222;28;20195;-77
2023/12/02 09:28:54;;;;;;;11.68;5.82;;;;;;;13.57;51.32;94000.03;4987790;28;20218;-77
2023/12/02 09:31:20;;;;;;;8.77;5.55;;;;;;;13.78;50.82;93975.34;4986425;28;20230;-76
2023/12/02 09:33:48;;;;;;;11.77;5.47;;;;;;;13.90;50.62;93971.97;4988502;28;20223;-76
2023/12/02 09:36:32;;;;;;;12.15;5.68;;;;;;;14.20;50.50;93994.63;4993204;28;20218;-77
2023/12/02 09:39:09;;;;;;;13.80;5.70;;;;;;;14.46;50.24;93999.16;4977575;28;20223;-75
2023/12/02 09:41:47;;;;;;;7.50;4.35;;;;;;;14.64;48.15;93998.63;4977195;28;20195;-77
2023/12/02 09:44:28;;;;;;;8.45;4.60;;;;;;;14.63;48.45;93984.56;4991737;28;20194;-76
2023/12/02 09:47:06;;;;;;;9.07;4.85;;;;;;;14.73;48.27;93966.47;4984960;28;20801;-78
2023/12/02 09:49:50;;;;;;;10.50;3.78;;;;;;;14.81;47.88;93985.78;5002407;28;20250;-77
2023/12/02 09:52:21;;;;;;;6.22;3.78;;;;;;;14.87;47.07;93972.59;4988839;28;20215;-76
2023/12/02 09:54:49;;;;;;;11.93;3.65;;;;;;;14.89;46.01;93967.91;4982202;28;20215;-76
2023/12/02 09:57:42;;;;;;;11.30;3.70;;;;;;;15.00;46.30;93954.06;5004444;28;20243;-76
2023/12/02 10:00:17;;;;;;;11.65;3.92;;;;;;;15.13;47.06;93970.94;4997434;28;20231;-76
2023/12/02 10:02:50;;;;;;;8.77;3.53;;;;;;;15.21;46.57;93962.78;5001598;28;20242;-76
2023/12/02 10:05:17;;;;;;;20.50;4.45;;;;;;;15.34;44.88;93969.88;5002624;28;20194;-77
2023/12/02 10:07:59;;;;;;;11.02;4.32;;;;;;;15.29;44.68;93962.59;5002822;28;20271;-77
2023/12/02 10:10:30;;;;;;;9.45;4.18;;;;;;;15.27;44.63;93937.31;5005528;28;20242;-76
2023/12/02 10:13:36;;;;;;;8.52;4.00;;;;;;;15.34;44.76;93940.75;5008751;28;20269;-77
2023/12/02 10:16:10;;;;;;;9.75;3.90;;;;;;;15.51;45.76;93951.72;5000456;28;20227;-77
2023/12/02 10:18:40;;;;;;;11.52;4.43;;;;;;;15.64;44.46;93922.56;4989387;28;20222;-79
2023/12/02 10:21:10;;;;;;;16.10;4.63;;;;;;;15.68;44.84;93928.22;4999801;28;20504;-77
2023/12/02 10:23:56;;;;;;;9.95;4.07;;;;;;;15.66;44.90;93937.22;5000489;28;20194;-78
2023/12/02 10:26:26;;;;;;;8.18;4.07;;;;;;;15.66;44.16;93925.78;5003898;28;20195;-75
2023/12/02 10:28:51;;;;;;;10.25;3.88;;;;;;;15.53;44.83;93929.31;5003723;28;20214;-77
2023/12/02 10:31:26;;;;;;;8.48;3.78;;;;;;;15.49;43.73;93943.97;5006920;28;20234;-76
2023/12/02 10:34:04;;;;;;;9.57;4.68;;;;;;;15.62;43.12;93924.59;5002559;28;20348;-77
2023/12/02 10:36:33;;;;;;;8.32;4.47;;;;;;;15.49;43.70;93883.03;5007638;28;20218;-77
2023/12/02 10:39:10;;;;;;;9.65;4.10;;;;;;;15.46;44.59;93893.25;5004407;28;20251;-77
2023/12/02 10:41:51;;;;;;;10.02;3.83;;;;;;;15.44;43.83;93896.09;4998446;28;20198;-77
2023/12/02 10:44:21;;;;;;;9.20;4.10;;;;;;;15.32;42.88;93895.94;5001379;28;20187;-77
2023/12/02 10:46:48;;;;;;;6.65;3.92;;;;;;;15.38;42.77;93897.75;5003312;28;20235;-75
2023/12/02 10:49:18;;;;;;;8.68;3.42;;;;;;;15.10;40.65;93903.34;5004989;28;20245;-78
2023/12/02 10:51:46;;;;;;;6.30;2.45;;;;;;;15.14;38.79;93875.41;5000014;28;20215;-77
2023/12/02 10:54:16;;;;;;;6.57;2.40;;;;;;;15.32;39.07;93877.41;4996638;28;20650;-78
2023/12/02 10:56:45;;;;;;;8.13;2.85;;;;;;;15.32;41.49;93893.31;5001077;28;20304;-77
2023/12/02 10:59:12;;;;;;;8.48;2.97;;;;;;;15.33;39.49;93883.50;5000936;28;20283;-77
2023/12/02 11:01:53;;;;;;;5.90;2.90;;;;;;;15.26;38.62;93859.69;5003832;28;20219;-79
2023/12/02 11:04:50;;;;;;;5.63;2.60;;;;;;;15.33;40.29;93860.47;5000503;28;20227;-77
2023/12/02 11:07:22;;;;;;;9.88;3.35;;;;;;;15.35;41.19;93852.34;4980826;28;20231;-78
2023/12/02 11:09:56;;;;;;;17.35;4.28;;;;;;;15.40;41.40;93863.13;5001664;28;20227;-79
2023/12/02 11:12:50;;;;;;;12.93;4.13;;;;;;;15.39;41.18;93846.41;5009080;28;20222;-77
2023/12/02 11:15:21;;;;;;;14.23;3.55;;;;;;;15.39;40.87;93841.09;5000346;28;20305;-78
2023/12/02 11:18:02;;;;;;;11.27;3.85;;;;;;;15.37;40.83;93843.16;5006187;28;20214;-77
2023/12/02 11:21:05;;;;;;;15.10;3.55;;;;;;;15.37;41.07;93840.53;4997751;28;20186;-77
2023/12/02 11:23:40;;;;;;;8.55;3.67;;;;;;;15.42;38.93;93835.41;5002450;28;20257;-78
2023/12/02 11:26:39;;;;;;;7.72;3.10;;;;;;;15.44;38.91;93827.22;5000956;28;20195;-75
2023/12/02 11:29:25;;;;;;;12.07;3.80;;;;;;;15.47;38.20;93834.75;4999205;28;20285;-76
2023/12/02 11:32:11;;;;;;;10.10;3.50;;;;;;;15.51;39.06;93829.88;5001512;28;20338;-77
2023/12/02 11:34:45;;;;;;;16.25;4.97;;;;;;;15.60;39.64;93833.88;5002419;28;20218;-77